sensor_id;sensor_type;location;lat;lon;timestamp;temperature;humidity
41220;DHT22;26951;47.338;9.196;2022-08-03T00:01:44;16.30;66.00
41220;DHT22;26951;47.338;9.196;2022-08-03T00:04:28;16.20;63.50
41220;DHT22;26951;47.338;9.196;2022-08-03T00:07:12;16.20;62.80
41220;DHT22;26951;47.338;9.196;2022-08-03T00:09:56;16.20;62.50
41220;DHT22;26951;47.338;9.196;2022-08-03T00:12:40;16.10;62.80
41220;DHT22;26951;47.338;9.196;2022-08-03T00:15:24;16.10;63.40
41220;DHT22;26951;47.338;9.196;2022-08-03T00:18:08;16.00;63.60
41220;DHT22;26951;47.338;9.196;2022-08-03T00:20:53;16.00;64.30
41220;DHT22;26951;47.338;9.196;2022-08-03T00:23:37;16.00;65.60
41220;DHT22;26951;47.338;9.196;2022-08-03T00:26:21;16.00;66.70
41220;DHT22;26951;47.338;9.196;2022-08-03T00:29:05;16.10;66.90
41220;DHT22;26951;47.338;9.196;2022-08-03T00:31:49;16.10;67.60
41220;DHT22;26951;47.338;9.196;2022-08-03T00:34:33;16.10;66.80
41220;DHT22;26951;47.338;9.196;2022-08-03T00:37:17;16.00;67.70
41220;DHT22;26951;47.338;9.196;2022-08-03T00:40:02;16.10;67.90
41220;DHT22;26951;47.338;9.196;2022-08-03T00:42:55;16.10;67.80
41220;DHT22;26951;47.338;9.196;2022-08-03T00:45:40;16.10;67.30
41220;DHT22;26951;47.338;9.196;2022-08-03T00:48:25;16.20;67.00
41220;DHT22;26951;47.338;9.196;2022-08-03T00:51:09;16.20;66.50
41220;DHT22;26951;47.338;9.196;2022-08-03T00:53:53;16.20;66.50
41220;DHT22;26951;47.338;9.196;2022-08-03T00:56:38;16.10;66.30
41220;DHT22;26951;47.338;9.196;2022-08-03T00:59:22;16.20;66.20
41220;DHT22;26951;47.338;9.196;2022-08-03T01:02:10;16.10;65.70
41220;DHT22;26951;47.338;9.196;2022-08-03T01:04:55;16.10;65.60
41220;DHT22;26951;47.338;9.196;2022-08-03T01:08:00;16.10;65.90
41220;DHT22;26951;47.338;9.196;2022-08-03T01:11:02;16.10;67.10
41220;DHT22;26951;47.338;9.196;2022-08-03T01:14:02;16.10;67.00
41220;DHT22;26951;47.338;9.196;2022-08-03T01:32:12;15.80;64.50
41220;DHT22;26951;47.338;9.196;2022-08-03T01:35:01;15.80;65.90
41220;DHT22;26951;47.338;9.196;2022-08-03T01:37:55;15.80;66.90
41220;DHT22;26951;47.338;9.196;2022-08-03T01:40:41;15.80;67.10
41220;DHT22;26951;47.338;9.196;2022-08-03T01:43:28;15.80;66.60
41220;DHT22;26951;47.338;9.196;2022-08-03T01:46:14;15.70;67.20
41220;DHT22;26951;47.338;9.196;2022-08-03T01:48:59;15.70;67.60
41220;DHT22;26951;47.338;9.196;2022-08-03T01:51:44;15.70;68.10
41220;DHT22;26951;47.338;9.196;2022-08-03T01:54:35;15.70;67.60
41220;DHT22;26951;47.338;9.196;2022-08-03T01:57:21;15.70;69.40
41220;DHT22;26951;47.338;9.196;2022-08-03T02:00:07;15.70;69.50
41220;DHT22;26951;47.338;9.196;2022-08-03T02:02:55;15.80;69.40
41220;DHT22;26951;47.338;9.196;2022-08-03T02:05:42;15.80;67.60
41220;DHT22;26951;47.338;9.196;2022-08-03T02:08:29;15.80;67.70
41220;DHT22;26951;47.338;9.196;2022-08-03T02:11:14;15.80;67.70
41220;DHT22;26951;47.338;9.196;2022-08-03T02:14:01;15.80;67.20
41220;DHT22;26951;47.338;9.196;2022-08-03T02:16:48;15.80;67.70
41220;DHT22;26951;47.338;9.196;2022-08-03T02:19:33;15.80;66.50
41220;DHT22;26951;47.338;9.196;2022-08-03T02:22:18;15.80;65.00
41220;DHT22;26951;47.338;9.196;2022-08-03T02:25:02;15.70;67.30
41220;DHT22;26951;47.338;9.196;2022-08-03T02:27:53;15.70;68.00
41220;DHT22;26951;47.338;9.196;2022-08-03T02:30:39;15.70;67.10
41220;DHT22;26951;47.338;9.196;2022-08-03T02:33:40;15.70;66.70
41220;DHT22;26951;47.338;9.196;2022-08-03T02:36:28;15.60;67.70
41220;DHT22;26951;47.338;9.196;2022-08-03T02:39:17;15.60;68.30
41220;DHT22;26951;47.338;9.196;2022-08-03T02:42:04;15.70;68.10
41220;DHT22;26951;47.338;9.196;2022-08-03T02:44:52;15.70;68.40
41220;DHT22;26951;47.338;9.196;2022-08-03T02:47:39;15.70;67.60
41220;DHT22;26951;47.338;9.196;2022-08-03T02:50:25;15.60;67.40
41220;DHT22;26951;47.338;9.196;2022-08-03T02:53:10;15.60;68.10
41220;DHT22;26951;47.338;9.196;2022-08-03T02:55:55;15.60;68.50
41220;DHT22;26951;47.338;9.196;2022-08-03T02:58:41;15.60;68.00
41220;DHT22;26951;47.338;9.196;2022-08-03T03:01:26;15.60;67.60
41220;DHT22;26951;47.338;9.196;2022-08-03T03:04:12;15.70;67.30
41220;DHT22;26951;47.338;9.196;2022-08-03T03:06:57;15.60;67.30
41220;DHT22;26951;47.338;9.196;2022-08-03T03:09:43;15.60;66.00
41220;DHT22;26951;47.338;9.196;2022-08-03T03:12:28;15.60;67.00
41220;DHT22;26951;47.338;9.196;2022-08-03T03:15:12;15.60;67.00
41220;DHT22;26951;47.338;9.196;2022-08-03T03:17:58;15.60;66.90
41220;DHT22;26951;47.338;9.196;2022-08-03T03:20:44;15.50;65.90
41220;DHT22;26951;47.338;9.196;2022-08-03T03:23:29;15.50;65.70
41220;DHT22;26951;47.338;9.196;2022-08-03T03:26:14;15.50;65.70
41220;DHT22;26951;47.338;9.196;2022-08-03T03:29:00;15.40;65.60
41220;DHT22;26951;47.338;9.196;2022-08-03T03:31:45;15.40;66.60
41220;DHT22;26951;47.338;9.196;2022-08-03T03:34:30;15.40;67.00
41220;DHT22;26951;47.338;9.196;2022-08-03T03:37:14;15.40;66.20
41220;DHT22;26951;47.338;9.196;2022-08-03T03:39:58;15.30;66.40
41220;DHT22;26951;47.338;9.196;2022-08-03T03:42:42;15.30;66.60
41220;DHT22;26951;47.338;9.196;2022-08-03T03:45:27;15.30;67.10
41220;DHT22;26951;47.338;9.196;2022-08-03T03:48:11;15.30;67.50
41220;DHT22;26951;47.338;9.196;2022-08-03T03:50:56;15.30;67.60
41220;DHT22;26951;47.338;9.196;2022-08-03T03:53:58;15.30;67.20
41220;DHT22;26951;47.338;9.196;2022-08-03T03:56:43;15.30;67.30
41220;DHT22;26951;47.338;9.196;2022-08-03T03:59:27;15.30;67.40
41220;DHT22;26951;47.338;9.196;2022-08-03T04:02:11;15.20;67.50
41220;DHT22;26951;47.338;9.196;2022-08-03T04:04:55;15.30;67.80
41220;DHT22;26951;47.338;9.196;2022-08-03T04:08:14;15.20;67.10
41220;DHT22;26951;47.338;9.196;2022-08-03T04:11:35;15.20;67.10
41220;DHT22;26951;47.338;9.196;2022-08-03T04:14:34;15.20;68.00
41220;DHT22;26951;47.338;9.196;2022-08-03T04:17:20;15.20;68.20
41220;DHT22;26951;47.338;9.196;2022-08-03T04:20:06;15.10;67.00
41220;DHT22;26951;47.338;9.196;2022-08-03T04:22:50;15.10;66.90
41220;DHT22;26951;47.338;9.196;2022-08-03T04:25:36;15.10;67.90
41220;DHT22;26951;47.338;9.196;2022-08-03T04:28:22;15.10;68.00
41220;DHT22;26951;47.338;9.196;2022-08-03T04:31:07;15.10;68.00
41220;DHT22;26951;47.338;9.196;2022-08-03T04:33:52;15.10;68.30
41220;DHT22;26951;47.338;9.196;2022-08-03T04:36:43;15.10;68.80
41220;DHT22;26951;47.338;9.196;2022-08-03T04:39:30;15.20;68.90
41220;DHT22;26951;47.338;9.196;2022-08-03T04:42:16;15.20;68.50
41220;DHT22;26951;47.338;9.196;2022-08-03T04:45:02;15.20;68.90
41220;DHT22;26951;47.338;9.196;2022-08-03T04:47:47;15.30;68.70
41220;DHT22;26951;47.338;9.196;2022-08-03T04:50:33;15.30;68.70
41220;DHT22;26951;47.338;9.196;2022-08-03T04:53:17;15.30;69.00
41220;DHT22;26951;47.338;9.196;2022-08-03T04:56:05;15.30;69.20
41220;DHT22;26951;47.338;9.196;2022-08-03T04:58:49;15.30;68.70
41220;DHT22;26951;47.338;9.196;2022-08-03T05:01:33;15.40;69.20
41220;DHT22;26951;47.338;9.196;2022-08-03T05:04:17;15.40;70.30
41220;DHT22;26951;47.338;9.196;2022-08-03T05:07:02;15.30;70.00
41220;DHT22;26951;47.338;9.196;2022-08-03T05:09:46;15.30;69.80
41220;DHT22;26951;47.338;9.196;2022-08-03T05:12:30;15.40;70.40
41220;DHT22;26951;47.338;9.196;2022-08-03T05:15:15;15.40;70.40
41220;DHT22;26951;47.338;9.196;2022-08-03T05:17:59;15.40;70.40
41220;DHT22;26951;47.338;9.196;2022-08-03T05:20:43;15.40;70.40
41220;DHT22;26951;47.338;9.196;2022-08-03T05:23:27;15.40;70.40
41220;DHT22;26951;47.338;9.196;2022-08-03T05:26:11;15.50;72.40
41220;DHT22;26951;47.338;9.196;2022-08-03T05:28:55;15.60;73.10
41220;DHT22;26951;47.338;9.196;2022-08-03T05:31:39;15.60;73.70
41220;DHT22;26951;47.338;9.196;2022-08-03T05:34:23;15.60;73.60
41220;DHT22;26951;47.338;9.196;2022-08-03T05:37:08;15.70;73.60
41220;DHT22;26951;47.338;9.196;2022-08-03T05:39:52;15.70;73.80
41220;DHT22;26951;47.338;9.196;2022-08-03T05:42:36;15.80;73.80
41220;DHT22;26951;47.338;9.196;2022-08-03T05:45:21;15.80;74.10
41220;DHT22;26951;47.338;9.196;2022-08-03T05:48:05;15.90;74.40
41220;DHT22;26951;47.338;9.196;2022-08-03T05:50:49;16.00;73.80
41220;DHT22;26951;47.338;9.196;2022-08-03T05:53:34;16.10;74.70
41220;DHT22;26951;47.338;9.196;2022-08-03T05:56:21;16.20;75.70
41220;DHT22;26951;47.338;9.196;2022-08-03T05:59:07;16.40;76.90
41220;DHT22;26951;47.338;9.196;2022-08-03T06:01:51;16.60;79.10
41220;DHT22;26951;47.338;9.196;2022-08-03T06:04:35;17.00;83.40
41220;DHT22;26951;47.338;9.196;2022-08-03T06:07:20;17.40;90.10
41220;DHT22;26951;47.338;9.196;2022-08-03T06:10:04;17.80;92.20
41220;DHT22;26951;47.338;9.196;2022-08-03T06:12:49;18.30;91.60
41220;DHT22;26951;47.338;9.196;2022-08-03T06:15:34;18.90;90.90
41220;DHT22;26951;47.338;9.196;2022-08-03T06:18:18;19.40;90.00
41220;DHT22;26951;47.338;9.196;2022-08-03T06:21:03;20.10;86.70
41220;DHT22;26951;47.338;9.196;2022-08-03T06:23:47;20.70;80.00
41220;DHT22;26951;47.338;9.196;2022-08-03T06:26:31;21.30;76.80
41220;DHT22;26951;47.338;9.196;2022-08-03T06:29:15;21.90;75.30
41220;DHT22;26951;47.338;9.196;2022-08-03T06:31:59;22.40;70.50
41220;DHT22;26951;47.338;9.196;2022-08-03T06:34:44;23.00;67.90
41220;DHT22;26951;47.338;9.196;2022-08-03T06:37:28;23.50;66.50
41220;DHT22;26951;47.338;9.196;2022-08-03T06:40:14;23.90;63.60
41220;DHT22;26951;47.338;9.196;2022-08-03T06:43:01;24.40;62.30
41220;DHT22;26951;47.338;9.196;2022-08-03T06:45:46;24.80;60.20
41220;DHT22;26951;47.338;9.196;2022-08-03T06:48:31;25.30;56.70
41220;DHT22;26951;47.338;9.196;2022-08-03T06:51:15;25.50;51.60
41220;DHT22;26951;47.338;9.196;2022-08-03T06:53:59;25.70;51.10
41220;DHT22;26951;47.338;9.196;2022-08-03T06:56:44;26.00;52.20
41220;DHT22;26951;47.338;9.196;2022-08-03T06:59:28;26.20;48.70
41220;DHT22;26951;47.338;9.196;2022-08-03T07:02:12;26.30;48.00
41220;DHT22;26951;47.338;9.196;2022-08-03T07:04:56;26.40;48.10
41220;DHT22;26951;47.338;9.196;2022-08-03T07:07:40;26.70;46.70
41220;DHT22;26951;47.338;9.196;2022-08-03T07:10:25;27.10;46.00
41220;DHT22;26951;47.338;9.196;2022-08-03T07:13:10;27.40;44.70
41220;DHT22;26951;47.338;9.196;2022-08-03T07:15:54;27.70;45.90
41220;DHT22;26951;47.338;9.196;2022-08-03T07:18:39;28.10;44.70
41220;DHT22;26951;47.338;9.196;2022-08-03T07:21:23;28.30;44.40
41220;DHT22;26951;47.338;9.196;2022-08-03T07:24:07;28.40;42.10
41220;DHT22;26951;47.338;9.196;2022-08-03T07:26:52;28.50;40.80
41220;DHT22;26951;47.338;9.196;2022-08-03T07:29:36;28.60;40.70
41220;DHT22;26951;47.338;9.196;2022-08-03T07:32:22;28.50;40.90
41220;DHT22;26951;47.338;9.196;2022-08-03T07:35:06;28.40;40.60
41220;DHT22;26951;47.338;9.196;2022-08-03T07:37:51;28.50;41.30
41220;DHT22;26951;47.338;9.196;2022-08-03T07:40:35;28.50;41.60
41220;DHT22;26951;47.338;9.196;2022-08-03T07:43:19;28.60;42.90
41220;DHT22;26951;47.338;9.196;2022-08-03T07:46:03;28.80;41.30
41220;DHT22;26951;47.338;9.196;2022-08-03T07:48:47;28.90;39.90
41220;DHT22;26951;47.338;9.196;2022-08-03T07:51:31;29.10;40.30
41220;DHT22;26951;47.338;9.196;2022-08-03T07:54:15;29.30;38.30
41220;DHT22;26951;47.338;9.196;2022-08-03T07:57:00;29.50;39.90
41220;DHT22;26951;47.338;9.196;2022-08-03T07:59:45;29.50;38.40
41220;DHT22;26951;47.338;9.196;2022-08-03T08:02:30;29.50;40.50
41220;DHT22;26951;47.338;9.196;2022-08-03T08:05:14;29.70;41.20
41220;DHT22;26951;47.338;9.196;2022-08-03T08:08:00;29.90;40.60
41220;DHT22;26951;47.338;9.196;2022-08-03T08:10:45;30.00;39.20
41220;DHT22;26951;47.338;9.196;2022-08-03T08:13:30;30.20;39.20
41220;DHT22;26951;47.338;9.196;2022-08-03T08:16:14;30.40;40.20
41220;DHT22;26951;47.338;9.196;2022-08-03T08:18:58;30.50;38.30
41220;DHT22;26951;47.338;9.196;2022-08-03T08:21:43;30.70;35.00
41220;DHT22;26951;47.338;9.196;2022-08-03T08:24:27;30.70;38.80
41220;DHT22;26951;47.338;9.196;2022-08-03T08:27:14;30.90;36.40
41220;DHT22;26951;47.338;9.196;2022-08-03T08:29:58;30.90;38.80
41220;DHT22;26951;47.338;9.196;2022-08-03T08:32:43;31.00;37.10
41220;DHT22;26951;47.338;9.196;2022-08-03T08:35:27;31.30;38.90
41220;DHT22;26951;47.338;9.196;2022-08-03T08:38:12;31.50;37.30
41220;DHT22;26951;47.338;9.196;2022-08-03T08:40:56;31.60;37.00
41220;DHT22;26951;47.338;9.196;2022-08-03T08:43:41;31.70;35.40
41220;DHT22;26951;47.338;9.196;2022-08-03T08:46:25;31.70;36.00
41220;DHT22;26951;47.338;9.196;2022-08-03T08:49:09;31.80;36.30
41220;DHT22;26951;47.338;9.196;2022-08-03T08:51:56;31.90;35.50
41220;DHT22;26951;47.338;9.196;2022-08-03T08:54:43;31.90;37.00
41220;DHT22;26951;47.338;9.196;2022-08-03T08:57:29;31.80;35.30
41220;DHT22;26951;47.338;9.196;2022-08-03T09:00:14;32.00;36.20
41220;DHT22;26951;47.338;9.196;2022-08-03T09:03:00;32.00;35.40
41220;DHT22;26951;47.338;9.196;2022-08-03T09:05:45;32.20;37.30
41220;DHT22;26951;47.338;9.196;2022-08-03T09:08:30;32.30;36.40
41220;DHT22;26951;47.338;9.196;2022-08-03T09:11:14;32.20;35.40
41220;DHT22;26951;47.338;9.196;2022-08-03T09:13:58;32.20;35.80
41220;DHT22;26951;47.338;9.196;2022-08-03T09:16:57;32.20;38.10
41220;DHT22;26951;47.338;9.196;2022-08-03T09:20:04;32.10;35.90
41220;DHT22;26951;47.338;9.196;2022-08-03T09:22:58;32.00;37.90
41220;DHT22;26951;47.338;9.196;2022-08-03T09:25:43;32.00;37.50
41220;DHT22;26951;47.338;9.196;2022-08-03T09:28:34;32.10;37.80
41220;DHT22;26951;47.338;9.196;2022-08-03T09:31:18;32.10;37.00
41220;DHT22;26951;47.338;9.196;2022-08-03T09:34:07;32.10;36.70
41220;DHT22;26951;47.338;9.196;2022-08-03T09:36:51;32.00;40.00
41220;DHT22;26951;47.338;9.196;2022-08-03T09:39:37;31.90;37.20
41220;DHT22;26951;47.338;9.196;2022-08-03T09:42:20;31.80;36.40
41220;DHT22;26951;47.338;9.196;2022-08-03T09:45:06;31.70;38.90
41220;DHT22;26951;47.338;9.196;2022-08-03T09:48:28;31.70;38.10
41220;DHT22;26951;47.338;9.196;2022-08-03T09:51:12;31.70;37.90
41220;DHT22;26951;47.338;9.196;2022-08-03T09:53:58;31.70;39.90
41220;DHT22;26951;47.338;9.196;2022-08-03T09:56:46;31.60;39.60
41220;DHT22;26951;47.338;9.196;2022-08-03T09:59:31;31.60;38.40
41220;DHT22;26951;47.338;9.196;2022-08-03T10:02:25;31.60;41.10
41220;DHT22;26951;47.338;9.196;2022-08-03T10:05:12;31.50;37.00
41220;DHT22;26951;47.338;9.196;2022-08-03T10:07:56;31.50;40.10
41220;DHT22;26951;47.338;9.196;2022-08-03T10:10:44;31.60;39.80
41220;DHT22;26951;47.338;9.196;2022-08-03T10:13:29;31.60;38.90
41220;DHT22;26951;47.338;9.196;2022-08-03T10:16:13;31.60;36.40
41220;DHT22;26951;47.338;9.196;2022-08-03T10:18:57;31.50;36.20
41220;DHT22;26951;47.338;9.196;2022-08-03T10:21:49;31.50;40.00
41220;DHT22;26951;47.338;9.196;2022-08-03T10:24:36;31.50;37.60
41220;DHT22;26951;47.338;9.196;2022-08-03T10:27:23;31.40;38.90
41220;DHT22;26951;47.338;9.196;2022-08-03T10:30:09;31.40;40.90
41220;DHT22;26951;47.338;9.196;2022-08-03T10:32:55;31.40;36.80
41220;DHT22;26951;47.338;9.196;2022-08-03T10:35:43;31.30;38.50
41220;DHT22;26951;47.338;9.196;2022-08-03T10:38:39;31.20;37.70
41220;DHT22;26951;47.338;9.196;2022-08-03T10:41:31;31.10;38.00
41220;DHT22;26951;47.338;9.196;2022-08-03T10:44:20;31.10;40.90
41220;DHT22;26951;47.338;9.196;2022-08-03T10:47:06;31.20;42.00
41220;DHT22;26951;47.338;9.196;2022-08-03T10:49:50;31.30;35.80
41220;DHT22;26951;47.338;9.196;2022-08-03T10:52:35;31.30;37.60
41220;DHT22;26951;47.338;9.196;2022-08-03T10:55:46;31.30;41.40
41220;DHT22;26951;47.338;9.196;2022-08-03T10:58:51;31.30;35.60
41220;DHT22;26951;47.338;9.196;2022-08-03T11:01:55;31.30;38.30
41220;DHT22;26951;47.338;9.196;2022-08-03T11:04:40;31.40;38.60
41220;DHT22;26951;47.338;9.196;2022-08-03T11:07:24;31.50;38.50
41220;DHT22;26951;47.338;9.196;2022-08-03T11:10:29;31.60;36.50
41220;DHT22;26951;47.338;9.196;2022-08-03T11:13:19;31.60;35.90
41220;DHT22;26951;47.338;9.196;2022-08-03T11:16:19;31.50;38.80
41220;DHT22;26951;47.338;9.196;2022-08-03T11:19:08;31.60;37.20
41220;DHT22;26951;47.338;9.196;2022-08-03T11:21:54;31.60;35.60
41220;DHT22;26951;47.338;9.196;2022-08-03T11:27:31;31.50;35.60
41220;DHT22;26951;47.338;9.196;2022-08-03T11:33:03;31.60;37.20
41220;DHT22;26951;47.338;9.196;2022-08-03T11:35:59;31.70;36.40
41220;DHT22;26951;47.338;9.196;2022-08-03T11:39:12;31.80;34.60
41220;DHT22;26951;47.338;9.196;2022-08-03T11:41:56;31.70;35.10
41220;DHT22;26951;47.338;9.196;2022-08-03T11:44:41;31.50;34.50
41220;DHT22;26951;47.338;9.196;2022-08-03T11:47:27;31.40;35.50
41220;DHT22;26951;47.338;9.196;2022-08-03T11:50:12;31.20;39.00
41220;DHT22;26951;47.338;9.196;2022-08-03T11:52:56;31.30;37.90
41220;DHT22;26951;47.338;9.196;2022-08-03T11:55:40;31.40;35.50
41220;DHT22;26951;47.338;9.196;2022-08-03T11:58:28;31.50;35.50
41220;DHT22;26951;47.338;9.196;2022-08-03T12:01:12;31.60;36.40
41220;DHT22;26951;47.338;9.196;2022-08-03T12:04:04;31.70;37.10
41220;DHT22;26951;47.338;9.196;2022-08-03T12:07:01;31.80;36.40
41220;DHT22;26951;47.338;9.196;2022-08-03T12:10:06;31.90;36.70
41220;DHT22;26951;47.338;9.196;2022-08-03T12:13:00;32.10;33.60
41220;DHT22;26951;47.338;9.196;2022-08-03T12:15:52;32.20;32.50
41220;DHT22;26951;47.338;9.196;2022-08-03T12:18:37;32.20;35.50
41220;DHT22;26951;47.338;9.196;2022-08-03T12:21:21;32.20;33.30
41220;DHT22;26951;47.338;9.196;2022-08-03T12:24:07;32.30;32.40
41220;DHT22;26951;47.338;9.196;2022-08-03T12:26:52;32.20;35.40
41220;DHT22;26951;47.338;9.196;2022-08-03T12:29:36;32.20;33.30
41220;DHT22;26951;47.338;9.196;2022-08-03T12:32:20;32.20;35.70
41220;DHT22;26951;47.338;9.196;2022-08-03T12:35:05;32.20;31.60
41220;DHT22;26951;47.338;9.196;2022-08-03T12:37:52;32.20;34.70
41220;DHT22;26951;47.338;9.196;2022-08-03T12:40:36;32.20;33.90
41220;DHT22;26951;47.338;9.196;2022-08-03T12:43:21;32.20;34.60
41220;DHT22;26951;47.338;9.196;2022-08-03T12:46:13;32.30;33.00
41220;DHT22;26951;47.338;9.196;2022-08-03T12:49:03;32.40;36.30
41220;DHT22;26951;47.338;9.196;2022-08-03T12:54:35;32.70;35.40
41220;DHT22;26951;47.338;9.196;2022-08-03T12:57:19;32.70;32.20
41220;DHT22;26951;47.338;9.196;2022-08-03T13:00:12;32.70;33.60
41220;DHT22;26951;47.338;9.196;2022-08-03T13:03:02;32.70;35.10
41220;DHT22;26951;47.338;9.196;2022-08-03T13:05:47;32.70;33.40
41220;DHT22;26951;47.338;9.196;2022-08-03T13:08:30;32.80;33.80
41220;DHT22;26951;47.338;9.196;2022-08-03T13:14:02;32.60;31.60
41220;DHT22;26951;47.338;9.196;2022-08-03T13:16:47;32.60;31.70
41220;DHT22;26951;47.338;9.196;2022-08-03T13:19:36;32.40;34.20
41220;DHT22;26951;47.338;9.196;2022-08-03T13:22:23;32.50;32.30
41220;DHT22;26951;47.338;9.196;2022-08-03T13:25:07;32.50;30.10
41220;DHT22;26951;47.338;9.196;2022-08-03T13:27:52;32.20;31.80
41220;DHT22;26951;47.338;9.196;2022-08-03T13:30:36;32.10;32.90
41220;DHT22;26951;47.338;9.196;2022-08-03T13:33:20;32.00;35.30
41220;DHT22;26951;47.338;9.196;2022-08-03T13:36:05;32.00;32.90
41220;DHT22;26951;47.338;9.196;2022-08-03T13:38:49;32.10;32.30
41220;DHT22;26951;47.338;9.196;2022-08-03T13:41:33;32.20;33.10
41220;DHT22;26951;47.338;9.196;2022-08-03T13:44:18;32.20;33.20
41220;DHT22;26951;47.338;9.196;2022-08-03T13:47:03;32.30;34.50
41220;DHT22;26951;47.338;9.196;2022-08-03T13:49:47;32.40;33.00
41220;DHT22;26951;47.338;9.196;2022-08-03T13:52:34;32.30;32.80
41220;DHT22;26951;47.338;9.196;2022-08-03T13:55:19;32.20;33.20
41220;DHT22;26951;47.338;9.196;2022-08-03T13:58:03;32.10;33.20
41220;DHT22;26951;47.338;9.196;2022-08-03T14:00:47;32.10;33.80
41220;DHT22;26951;47.338;9.196;2022-08-03T14:03:31;32.20;32.30
41220;DHT22;26951;47.338;9.196;2022-08-03T14:06:15;32.20;31.30
41220;DHT22;26951;47.338;9.196;2022-08-03T14:09:00;32.10;32.60
41220;DHT22;26951;47.338;9.196;2022-08-03T14:11:44;32.00;32.30
41220;DHT22;26951;47.338;9.196;2022-08-03T14:14:28;31.90;31.40
41220;DHT22;26951;47.338;9.196;2022-08-03T14:17:12;31.70;33.60
41220;DHT22;26951;47.338;9.196;2022-08-03T14:19:56;31.80;32.40
41220;DHT22;26951;47.338;9.196;2022-08-03T14:22:40;31.90;32.50
41220;DHT22;26951;47.338;9.196;2022-08-03T14:25:25;32.00;33.00
41220;DHT22;26951;47.338;9.196;2022-08-03T14:28:09;32.10;33.00
41220;DHT22;26951;47.338;9.196;2022-08-03T14:30:54;32.20;31.70
41220;DHT22;26951;47.338;9.196;2022-08-03T14:33:39;32.30;30.30
41220;DHT22;26951;47.338;9.196;2022-08-03T14:36:23;32.40;30.70
41220;DHT22;26951;47.338;9.196;2022-08-03T14:39:07;32.40;32.60
41220;DHT22;26951;47.338;9.196;2022-08-03T14:41:52;32.30;32.10
41220;DHT22;26951;47.338;9.196;2022-08-03T14:44:36;32.20;33.00
41220;DHT22;26951;47.338;9.196;2022-08-03T14:47:20;32.30;31.10
41220;DHT22;26951;47.338;9.196;2022-08-03T14:50:05;32.30;30.70
41220;DHT22;26951;47.338;9.196;2022-08-03T14:52:50;32.30;30.80
41220;DHT22;26951;47.338;9.196;2022-08-03T14:55:35;32.30;31.00
41220;DHT22;26951;47.338;9.196;2022-08-03T14:58:21;32.20;30.60
41220;DHT22;26951;47.338;9.196;2022-08-03T15:01:06;32.20;30.60
41220;DHT22;26951;47.338;9.196;2022-08-03T15:03:50;32.10;29.30
41220;DHT22;26951;47.338;9.196;2022-08-03T15:06:34;32.00;31.00
41220;DHT22;26951;47.338;9.196;2022-08-03T15:09:18;32.00;30.60
41220;DHT22;26951;47.338;9.196;2022-08-03T15:12:04;32.00;29.90
41220;DHT22;26951;47.338;9.196;2022-08-03T15:14:48;32.00;29.90
41220;DHT22;26951;47.338;9.196;2022-08-03T15:17:32;32.00;29.70
41220;DHT22;26951;47.338;9.196;2022-08-03T15:20:16;31.90;27.50
41220;DHT22;26951;47.338;9.196;2022-08-03T15:23:00;31.90;28.90
41220;DHT22;26951;47.338;9.196;2022-08-03T15:25:45;32.00;29.60
41220;DHT22;26951;47.338;9.196;2022-08-03T15:28:30;32.00;30.00
41220;DHT22;26951;47.338;9.196;2022-08-03T15:31:14;32.10;29.50
41220;DHT22;26951;47.338;9.196;2022-08-03T15:34:03;32.00;30.00
41220;DHT22;26951;47.338;9.196;2022-08-03T15:36:47;32.00;29.00
41220;DHT22;26951;47.338;9.196;2022-08-03T15:39:31;32.00;28.10
41220;DHT22;26951;47.338;9.196;2022-08-03T15:42:15;32.00;28.90
41220;DHT22;26951;47.338;9.196;2022-08-03T15:44:59;31.90;28.50
41220;DHT22;26951;47.338;9.196;2022-08-03T15:47:43;31.80;29.00
41220;DHT22;26951;47.338;9.196;2022-08-03T15:50:28;31.80;28.20
41220;DHT22;26951;47.338;9.196;2022-08-03T15:53:11;31.70;28.90
41220;DHT22;26951;47.338;9.196;2022-08-03T15:55:56;31.60;28.60
41220;DHT22;26951;47.338;9.196;2022-08-03T15:58:40;31.50;29.00
41220;DHT22;26951;47.338;9.196;2022-08-03T16:01:25;31.40;27.60
41220;DHT22;26951;47.338;9.196;2022-08-03T16:04:09;31.30;28.50
41220;DHT22;26951;47.338;9.196;2022-08-03T16:06:53;31.40;29.00
41220;DHT22;26951;47.338;9.196;2022-08-03T16:09:37;31.40;28.70
41220;DHT22;26951;47.338;9.196;2022-08-03T16:12:21;31.40;29.40
41220;DHT22;26951;47.338;9.196;2022-08-03T16:15:06;31.40;28.90
41220;DHT22;26951;47.338;9.196;2022-08-03T16:17:50;31.30;29.50
41220;DHT22;26951;47.338;9.196;2022-08-03T16:20:34;31.30;29.30
41220;DHT22;26951;47.338;9.196;2022-08-03T16:23:19;31.10;29.00
41220;DHT22;26951;47.338;9.196;2022-08-03T16:26:03;31.00;29.70
41220;DHT22;26951;47.338;9.196;2022-08-03T16:28:47;31.00;29.30
41220;DHT22;26951;47.338;9.196;2022-08-03T16:31:31;30.80;28.30
41220;DHT22;26951;47.338;9.196;2022-08-03T16:34:15;30.70;29.20
41220;DHT22;26951;47.338;9.196;2022-08-03T16:37:00;30.70;29.90
41220;DHT22;26951;47.338;9.196;2022-08-03T16:39:44;30.50;29.70
41220;DHT22;26951;47.338;9.196;2022-08-03T16:42:29;30.50;30.40
41220;DHT22;26951;47.338;9.196;2022-08-03T16:45:13;30.40;30.20
41220;DHT22;26951;47.338;9.196;2022-08-03T16:47:57;30.40;30.80
41220;DHT22;26951;47.338;9.196;2022-08-03T16:50:41;30.30;30.90
41220;DHT22;26951;47.338;9.196;2022-08-03T16:53:27;30.20;30.90
41220;DHT22;26951;47.338;9.196;2022-08-03T16:56:11;30.20;31.70
41220;DHT22;26951;47.338;9.196;2022-08-03T16:58:55;30.10;31.00
41220;DHT22;26951;47.338;9.196;2022-08-03T17:01:39;30.00;31.30
41220;DHT22;26951;47.338;9.196;2022-08-03T17:04:24;29.90;30.30
41220;DHT22;26951;47.338;9.196;2022-08-03T17:07:09;29.90;31.20
41220;DHT22;26951;47.338;9.196;2022-08-03T17:09:53;29.70;31.80
41220;DHT22;26951;47.338;9.196;2022-08-03T17:12:38;29.70;31.40
41220;DHT22;26951;47.338;9.196;2022-08-03T17:15:22;29.60;32.30
41220;DHT22;26951;47.338;9.196;2022-08-03T17:18:07;29.50;33.10
41220;DHT22;26951;47.338;9.196;2022-08-03T17:20:53;29.50;32.40
41220;DHT22;26951;47.338;9.196;2022-08-03T17:26:39;29.30;31.40
41220;DHT22;26951;47.338;9.196;2022-08-03T17:29:24;29.10;31.40
41220;DHT22;26951;47.338;9.196;2022-08-03T17:32:09;28.90;32.40
41220;DHT22;26951;47.338;9.196;2022-08-03T17:34:54;28.80;32.10
41220;DHT22;26951;47.338;9.196;2022-08-03T17:37:41;28.70;33.70
41220;DHT22;26951;47.338;9.196;2022-08-03T17:40:25;28.50;33.50
41220;DHT22;26951;47.338;9.196;2022-08-03T17:43:09;28.30;33.30
41220;DHT22;26951;47.338;9.196;2022-08-03T17:45:55;28.20;33.90
41220;DHT22;26951;47.338;9.196;2022-08-03T17:48:39;28.00;34.60
41220;DHT22;26951;47.338;9.196;2022-08-03T17:51:33;27.90;35.60
41220;DHT22;26951;47.338;9.196;2022-08-03T17:54:51;27.70;35.50
41220;DHT22;26951;47.338;9.196;2022-08-03T17:57:47;27.40;36.20
41220;DHT22;26951;47.338;9.196;2022-08-03T18:00:32;27.10;37.40